Time;durP1;ratioP1;P1;durP2;ratioP2;P2;SDS_P1;SDS_P2;PMS_P1;PMS_P2;Temp;Humidity;BMP_temperature;BMP_pressure;BME280_temperature;BME280_humidity;BME280_pressure;Samples;Min_cycle;Max_cycle;Signal;HPM_P1;HPM_P2
2022/04/26 03:38:11;;;;;;;19.42;11.82;;;5.10;99.90;;;;;;5042507;28;20048;-45
2022/04/26 03:40:37;;;;;;;21.88;10.95;;;5.10;99.90;;;;;;5062021;28;20090;-46
2022/04/26 03:43:03;;;;;;;19.02;10.48;;;5.10;99.90;;;;;;5055407;28;20139;-47
2022/04/26 03:45:29;;;;;;;18.13;9.98;;;5.10;99.90;;;;;;5046879;28;20483;-44
2022/04/26 03:47:54;;;;;;;20.65;10.82;;;5.10;99.90;;;;;;5062287;28;20101;-46
2022/04/26 03:50:21;;;;;;;19.42;10.40;;;5.10;99.90;;;;;;5061273;28;20058;-46
2022/04/26 03:52:47;;;;;;;23.13;11.38;;;5.10;99.90;;;;;;5047201;28;20076;-46
2022/04/26 03:55:12;;;;;;;18.52;9.25;;;5.10;99.90;;;;;;5060987;28;20491;-50
2022/04/26 03:57:38;;;;;;;19.88;9.68;;;5.00;99.90;;;;;;5061234;28;20044;-47
2022/04/26 04:00:08;;;;;;;19.70;10.05;;;5.00;99.90;;;;;;5061838;28;20091;-47
2022/04/26 04:02:34;;;;;;;22.23;10.05;;;5.00;99.90;;;;;;5060479;28;20052;-47
2022/04/26 04:04:59;;;;;;;13.85;9.15;;;5.00;99.90;;;;;;5061256;28;20045;-47
2022/04/26 04:07:25;;;;;;;20.38;9.75;;;5.00;99.90;;;;;;5052689;28;20045;-44
2022/04/26 04:09:52;;;;;;;18.48;9.82;;;5.00;99.90;;;;;;5048098;28;20041;-46
2022/04/26 04:12:17;;;;;;;22.00;9.85;;;5.00;99.90;;;;;;5053547;28;20491;-46
2022/04/26 04:14:43;;;;;;;23.85;9.57;;;5.00;99.90;;;;;;5042197;28;20045;-44
2022/04/26 04:17:09;;;;;;;13.50;8.93;;;4.90;99.90;;;;;;5042609;28;20567;-47
2022/04/26 04:19:36;;;;;;;15.68;9.63;;;5.00;99.90;;;;;;5060528;28;20053;-48
2022/04/26 04:22:02;;;;;;;19.02;8.95;;;5.00;99.90;;;;;;5052676;28;20049;-46
2022/04/26 04:24:28;;;;;;;16.05;9.00;;;4.90;99.90;;;;;;5047316;28;20053;-46
2022/04/26 04:26:55;;;;;;;15.93;8.88;;;5.00;99.90;;;;;;5054413;28;20095;-43
2022/04/26 04:29:20;;;;;;;16.73;8.43;;;4.90;99.90;;;;;;5046880;28;20179;-45
2022/04/26 04:31:46;;;;;;;17.92;9.60;;;5.00;99.90;;;;;;5041925;28;20045;-46
2022/04/26 04:34:12;;;;;;;18.33;9.27;;;4.90;99.90;;;;;;5041609;28;20049;-45
2022/04/26 04:36:38;;;;;;;16.67;8.43;;;5.00;99.90;;;;;;5055575;28;20045;-50
2022/04/26 04:39:04;;;;;;;14.70;8.82;;;5.00;99.90;;;;;;5051741;28;20059;-46
2022/04/26 04:41:35;;;;;;;22.25;8.98;;;5.00;99.90;;;;;;5064175;28;20056;-48
2022/04/26 04:44:03;;;;;;;16.17;8.38;;;5.10;99.90;;;;;;5061663;28;20134;-46
2022/04/26 04:46:28;;;;;;;16.42;8.70;;;5.10;99.90;;;;;;5059414;28;20437;-45
2022/04/26 04:48:54;;;;;;;12.82;8.00;;;5.10;99.90;;;;;;5041350;28;20053;-46
2022/04/26 04:51:25;;;;;;;16.00;8.20;;;5.20;99.90;;;;;;5046142;28;20474;-46
2022/04/26 04:53:51;;;;;;;19.55;9.73;;;5.30;99.90;;;;;;5056231;28;20145;-48
2022/04/26 04:56:17;;;;;;;12.45;8.30;;;5.30;99.90;;;;;;5058953;28;20519;-46
2022/04/26 04:58:42;;;;;;;19.65;7.68;;;5.30;99.90;;;;;;5060280;28;20075;-46
2022/04/26 05:01:08;;;;;;;11.48;8.30;;;5.40;99.90;;;;;;5046236;28;20052;-45
2022/04/26 05:03:34;;;;;;;16.77;8.18;;;5.50;99.90;;;;;;5039524;28;20052;-48
2022/04/26 05:05:59;;;;;;;11.15;8.00;;;5.70;99.90;;;;;;5055414;28;20503;-46
2022/04/26 05:08:25;;;;;;;16.13;7.30;;;5.90;99.90;;;;;;5056558;28;20052;-45
2022/04/26 05:10:51;;;;;;;12.80;8.55;;;6.10;99.90;;;;;;5048279;28;20062;-47
2022/04/26 05:13:17;;;;;;;13.88;7.75;;;6.30;99.90;;;;;;5048473;28;20052;-44
2022/04/26 05:15:44;;;;;;;22.50;8.35;;;6.70;99.90;;;;;;5040458;28;20033;-46
2022/04/26 05:18:14;;;;;;;12.60;6.93;;;7.50;99.90;;;;;;5044544;28;20048;-47
2022/04/26 05:20:40;;;;;;;14.68;7.03;;;8.40;99.90;;;;;;5040074;28;20470;-49
2022/04/26 05:25:50;;;;;;;14.77;6.55;;;9.90;99.90;;;;;;5040365;28;20527;-49
2022/04/26 05:28:16;;;;;;;14.68;6.80;;;10.40;99.90;;;;;;5036948;28;20136;-47
2022/04/26 05:30:42;;;;;;;14.18;5.80;;;11.00;99.90;;;;;;5043394;28;20115;-51
2022/04/26 05:33:07;;;;;;;13.05;5.93;;;10.70;99.90;;;;;;5046940;28;20577;-51
2022/04/26 05:35:36;;;;;;;11.70;6.35;;;10.20;99.90;;;;;;5048974;28;20057;-49
2022/04/26 05:38:02;;;;;;;12.77;6.68;;;10.00;99.90;;;;;;5038279;28;20448;-47
2022/04/26 05:40:27;;;;;;;16.52;6.22;;;10.70;99.90;;;;;;5040360;28;20549;-48
2022/04/26 05:42:53;;;;;;;14.18;5.85;;;11.60;99.90;;;;;;5038187;28;20060;-51
2022/04/26 05:45:19;;;;;;;14.02;5.70;;;12.30;99.90;;;;;;5049129;28;20141;-46
2022/04/26 05:47:45;;;;;;;11.80;5.78;;;13.60;99.90;;;;;;5058774;28;20102;-52
2022/04/26 05:50:12;;;;;;;14.00;5.43;;;14.10;99.90;;;;;;5041766;28;20059;-49
2022/04/26 05:52:38;;;;;;;9.25;5.47;;;14.50;99.90;;;;;;5055863;28;20915;-53
2022/04/26 05:55:05;;;;;;;11.77;5.45;;;15.40;99.90;;;;;;5045814;28;20131;-50
2022/04/26 05:57:31;;;;;;;7.28;5.03;;;15.70;99.90;;;;;;5059186;28;20045;-52
2022/04/26 05:59:57;;;;;;;11.10;5.10;;;15.90;99.90;;;;;;5047684;28;20136;-49
2022/04/26 06:02:23;;;;;;;13.10;6.10;;;15.40;99.90;;;;;;5041549;28;20045;-52
2022/04/26 06:04:48;;;;;;;10.75;4.93;;;15.80;99.90;;;;;;5047023;28;20056;-52
2022/04/26 06:07:14;;;;;;;10.07;4.90;;;16.00;99.90;;;;;;5051340;28;20057;-51
2022/04/26 06:09:41;;;;;;;11.77;4.75;;;16.40;99.90;;;;;;5048786;28;20056;-51
2022/04/26 06:12:07;;;;;;;9.82;5.05;;;16.40;99.90;;;;;;5040731;28;20041;-50
2022/04/26 06:14:33;;;;;;;11.18;5.05;;;15.80;99.90;;;;;;5040013;28;20053;-50
2022/04/26 06:16:58;;;;;;;10.63;5.05;;;16.00;99.90;;;;;;5043757;28;20509;-49
2022/04/26 06:19:24;;;;;;;13.85;5.40;;;17.10;99.90;;;;;;5048386;28;20063;-48
2022/04/26 06:21:50;;;;;;;12.55;5.15;;;16.70;99.90;;;;;;5176751;22;20061;-47
2022/04/26 06:24:16;;;;;;;8.93;4.82;;;15.20;99.90;;;;;;5059618;28;20050;-42
2022/04/26 06:26:41;;;;;;;9.88;4.80;;;13.90;99.90;;;;;;5057548;28;20557;-49
2022/04/26 06:29:07;;;;;;;12.85;5.07;;;13.20;99.90;;;;;;5059850;28;20037;-49
2022/04/26 06:31:33;;;;;;;13.27;6.05;;;12.10;99.90;;;;;;5058533;28;20502;-49
2022/04/26 06:33:59;;;;;;;11.13;5.63;;;11.30;99.90;;;;;;5057540;28;20171;-49
2022/04/26 06:36:24;;;;;;;11.75;5.10;;;11.10;99.90;;;;;;5059573;28;20515;-49
2022/04/26 06:38:52;;;;;;;13.80;5.78;;;11.50;99.90;;;;;;5061566;28;20394;-48
2022/04/26 06:41:18;;;;;;;13.02;5.93;;;12.10;99.90;;;;;;5071689;28;20484;-57
2022/04/26 06:43:44;;;;;;;11.98;5.22;;;12.50;99.90;;;;;;5058316;28;20257;-50
2022/04/26 06:46:10;;;;;;;11.60;5.68;;;12.20;99.90;;;;;;5075386;28;20044;-48
2022/04/26 06:48:41;;;;;;;11.68;5.70;;;13.50;99.90;;;;;;5073694;28;20433;-48
2022/04/26 06:51:07;;;;;;;13.52;5.68;;;13.90;99.90;;;;;;5071227;28;20142;-52
2022/04/26 06:53:34;;;;;;;12.25;5.63;;;13.50;99.90;;;;;;5077506;28;20099;-51
2022/04/26 06:56:00;;;;;;;9.85;6.00;;;13.90;99.90;;;;;;5073759;28;20048;-49
2022/04/26 06:58:26;;;;;;;10.80;6.18;;;14.90;99.90;;;;;;5069256;28;20052;-48
2022/04/26 07:00:52;;;;;;;13.70;6.47;;;14.60;99.90;;;;;;5074736;28;20043;-50
2022/04/26 07:03:18;;;;;;;10.88;5.90;;;14.60;99.90;;;;;;5074032;28;20455;-51
2022/04/26 07:05:45;;;;;;;14.95;6.00;;;14.40;99.90;;;;;;5067062;28;20582;-49
2022/04/26 07:08:10;;;;;;;9.90;6.30;;;13.30;99.90;;;;;;5070899;28;20155;-50
2022/04/26 07:10:37;;;;;;;12.07;5.68;;;13.10;99.90;;;;;;5070468;28;20052;-49
2022/04/26 07:13:03;;;;;;;14.20;5.65;;;12.30;99.90;;;;;;5067323;28;20052;-49
2022/04/26 07:15:29;;;;;;;11.35;5.78;;;11.70;99.90;;;;;;5062218;28;20440;-44
2022/04/26 07:17:54;;;;;;;10.00;5.50;;;11.40;99.90;;;;;;5065513;28;20047;-46
2022/04/26 07:20:20;;;;;;;7.43;5.43;;;11.10;99.90;;;;;;5062606;28;20041;-46
2022/04/26 07:22:46;;;;;;;12.48;5.85;;;10.90;99.90;;;;;;5066198;28;20517;-50
2022/04/26 07:25:12;;;;;;;9.98;4.57;;;10.60;99.90;;;;;;5081288;28;20138;-46
2022/04/26 07:27:39;;;;;;;7.95;5.32;;;10.50;99.90;;;;;;5081723;28;20053;-52
2022/04/26 07:30:06;;;;;;;8.45;4.80;;;10.50;99.90;;;;;;5079187;28;20069;-47
2022/04/26 07:35:16;;;;;;;11.75;5.50;;;11.20;99.90;;;;;;5062303;28;20049;-51
2022/04/26 07:37:42;;;;;;;13.07;5.80;;;11.60;99.90;;;;;;5066683;28;20138;-51
2022/04/26 07:40:09;;;;;;;10.43;5.10;;;11.90;99.90;;;;;;5082472;28;20131;-51
2022/04/26 07:42:35;;;;;;;8.77;4.90;;;12.00;99.90;;;;;;5070055;28;20052;-50
2022/04/26 07:45:01;;;;;;;11.32;5.53;;;12.10;99.90;;;;;;5064300;28;20553;-51
2022/04/26 07:47:28;;;;;;;9.68;4.95;;;12.10;99.90;;;;;;5072183;28;20048;-44
2022/04/26 07:49:54;;;;;;;12.10;4.90;;;12.60;99.90;;;;;;5072405;28;20048;-49
2022/04/26 07:52:21;;;;;;;10.65;5.50;;;12.80;99.90;;;;;;5073187;28;20558;-46
2022/04/26 07:54:48;;;;;;;12.50;6.00;;;12.30;99.90;;;;;;5074070;28;20498;-48
2022/04/26 07:57:13;;;;;;;7.22;5.38;;;11.50;99.90;;;;;;5062094;28;20048;-48
2022/04/26 07:59:40;;;;;;;8.98;5.47;;;11.20;99.90;;;;;;5072260;28;20046;-49
2022/04/26 08:02:12;;;;;;;10.02;5.22;;;11.00;99.90;;;;;;5070999;28;20059;-48
2022/04/26 08:04:38;;;;;;;9.77;5.67;;;11.00;99.90;;;;;;5066317;28;20045;-50
2022/04/26 08:07:04;;;;;;;9.68;4.55;;;10.90;99.90;;;;;;5060475;28;20055;-46
2022/04/26 08:09:35;;;;;;;9.52;5.20;;;11.20;99.90;;;;;;5074079;28;20525;-48
2022/04/26 08:12:01;;;;;;;10.88;4.80;;;10.90;99.90;;;;;;5071098;28;20490;-50
2022/04/26 08:14:27;;;;;;;10.73;4.97;;;11.00;99.90;;;;;;5064506;28;20044;-48
2022/04/26 08:16:54;;;;;;;11.13;5.03;;;11.50;99.90;;;;;;5075791;28;20056;-46
2022/04/26 08:19:20;;;;;;;9.57;5.35;;;12.00;99.90;;;;;;5060477;28;20052;-46
2022/04/26 08:21:46;;;;;;;10.20;4.47;;;12.00;99.90;;;;;;5060877;28;20510;-50
2022/04/26 08:29:40;;;;;;;9.02;4.60;;;11.60;99.90;;;;;;5061161;28;20076;-47
2022/04/26 08:32:06;;;;;;;9.57;4.93;;;11.80;99.90;;;;;;5058804;28;20049;-47
2022/04/26 08:34:32;;;;;;;8.55;4.32;;;11.60;99.90;;;;;;5059574;28;20057;-52
2022/04/26 08:36:58;;;;;;;7.65;4.30;;;11.60;99.90;;;;;;5059747;28;20478;-52
2022/04/26 08:39:24;;;;;;;7.45;4.07;;;11.70;99.90;;;;;;5061471;28;20109;-50
2022/04/26 08:41:50;;;;;;;7.72;4.00;;;11.70;99.90;;;;;;5060295;28;20048;-49
2022/04/26 08:44:15;;;;;;;7.35;4.10;;;12.10;99.90;;;;;;5060782;28;20048;-48
2022/04/26 08:52:10;;;;;;;7.18;4.07;;;11.90;99.90;;;;;;5078688;28;20071;-47
2022/04/26 08:54:36;;;;;;;17.00;3.78;;;11.70;99.90;;;;;;5080966;28;20040;-50
2022/04/26 08:57:02;;;;;;;11.60;3.95;;;11.90;99.90;;;;;;5079262;28;20077;-49
2022/04/26 08:59:30;;;;;;;5.45;3.63;;;12.00;99.90;;;;;;5078805;28;20105;-49
2022/04/26 09:02:19;;;;;;;7.68;3.70;;;12.20;99.90;;;;;;5079565;28;20402;-50
2022/04/26 09:04:50;;;;;;;8.48;3.83;;;12.30;99.90;;;;;;5080634;28;20470;-51
2022/04/26 09:07:30;;;;;;;9.20;3.90;;;12.60;99.90;;;;;;5079903;28;20533;-50
2022/04/26 09:10:16;;;;;;;12.35;4.28;;;12.80;99.90;;;;;;5063551;28;20040;-51
2022/04/26 09:13:07;;;;;;;7.38;3.70;;;13.20;99.90;;;;;;5062382;28;20552;-49
2022/04/26 09:15:51;;;;;;;8.43;5.18;;;13.30;99.90;;;;;;5078265;28;20094;-51
2022/04/26 09:18:20;;;;;;;12.02;3.72;;;13.40;99.90;;;;;;5074605;28;20161;-48
2022/04/26 09:20:51;;;;;;;11.50;3.65;;;13.40;99.90;;;;;;5081254;28;20051;-47
2022/04/26 09:23:18;;;;;;;8.38;3.55;;;13.20;99.90;;;;;;5066432;28;20088;-50
2022/04/26 09:25:46;;;;;;;6.88;3.50;;;13.30;99.90;;;;;;5083801;28;20039;-51
2022/04/26 09:28:46;;;;;;;8.38;3.40;;;13.60;99.90;;;;;;5077984;28;20168;-51
2022/04/26 09:31:21;;;;;;;6.90;3.80;;;13.40;99.90;;;;;;5048368;28;20060;-48
2022/04/26 09:33:56;;;;;;;6.95;3.38;;;12.70;99.90;;;;;;5062021;28;20079;-48
2022/04/26 09:36:31;;;;;;;7.85;3.50;;;12.50;99.90;;;;;;5080956;28;20044;-49
2022/04/26 09:39:00;;;;;;;9.57;3.90;;;12.50;99.90;;;;;;5081421;28;20048;-49
2022/04/26 09:41:28;;;;;;;8.20;4.22;;;12.80;99.90;;;;;;5080284;28;20051;-52
2022/04/26 09:43:58;;;;;;;8.13;3.55;;;13.10;99.90;;;;;;5080826;28;20087;-50
2022/04/26 09:46:24;;;;;;;16.77;4.05;;;13.30;99.90;;;;;;5080693;28;20591;-48
2022/04/26 09:48:53;;;;;;;6.00;3.47;;;13.60;99.90;;;;;;5078492;28;20201;-47
2022/04/26 09:51:19;;;;;;;5.38;3.40;;;13.60;99.90;;;;;;5077234;28;20526;-49
2022/04/26 09:53:44;;;;;;;6.75;3.72;;;13.60;99.90;;;;;;5068609;28;20056;-50
2022/04/26 09:56:13;;;;;;;7.68;4.68;;;13.50;99.90;;;;;;5066555;28;20230;-47
2022/04/26 09:58:42;;;;;;;6.88;3.72;;;13.80;99.90;;;;;;5066259;28;20652;-48
2022/04/26 10:01:09;;;;;;;9.07;3.70;;;13.50;99.90;;;;;;5067587;28;20057;-49
2022/04/26 10:03:43;;;;;;;7.78;3.53;;;13.80;99.90;;;;;;5071577;28;20263;-50
2022/04/26 10:06:10;;;;;;;9.88;3.70;;;14.00;99.90;;;;;;5063344;28;20048;-52
2022/04/26 10:08:36;;;;;;;4.97;3.25;;;13.90;99.90;;;;;;5075883;28;20055;-48
2022/04/26 10:11:03;;;;;;;5.53;3.45;;;14.00;99.90;;;;;;5080466;28;20044;-48
2022/04/26 10:13:32;;;;;;;9.10;4.18;;;14.10;99.90;;;;;;5073853;28;20426;-46
2022/04/26 10:16:04;;;;;;;8.00;4.28;;;13.90;99.60;;;;;;5072080;28;20108;-47
2022/04/26 10:18:37;;;;;;;5.15;3.60;;;13.90;99.90;;;;;;5070415;28;20056;-46
2022/04/26 10:21:04;;;;;;;7.38;3.63;;;14.00;99.90;;;;;;5072021;28;20036;-47
2022/04/26 10:23:50;;;;;;;9.20;3.85;;;14.20;99.90;;;;;;5075028;28;20112;-51
2022/04/26 10:26:22;;;;;;;10.00;3.28;;;14.40;99.90;;;;;;5071436;28;20464;-50
2022/04/26 10:28:51;;;;;;;6.72;3.55;;;14.30;98.70;;;;;;5070315;28;20048;-49
2022/04/26 10:31:17;;;;;;;5.65;3.60;;;14.20;99.40;;;;;;5070277;28;20145;-52
2022/04/26 10:33:58;;;;;;;7.95;4.00;;;14.10;99.90;;;;;;5078736;28;20048;-49
2022/04/26 10:36:27;;;;;;;7.55;3.55;;;13.90;99.90;;;;;;5077644;28;20048;-47
2022/04/26 10:39:07;;;;;;;7.88;3.17;;;13.60;99.90;;;;;;5070913;28;20053;-52
2022/04/26 10:41:45;;;;;;;6.45;3.35;;;13.70;99.90;;;;;;5067621;28;20058;-51
2022/04/26 10:44:15;;;;;;;8.35;3.75;;;13.30;99.90;;;;;;5071334;28;20056;-52
2022/04/26 10:46:42;;;;;;;8.48;4.43;;;13.00;99.90;;;;;;5072537;28;20057;-54
2022/04/26 10:49:29;;;;;;;16.38;4.70;;;13.30;99.90;;;;;;5069121;28;20090;-49
2022/04/26 10:51:56;;;;;;;6.32;3.63;;;13.50;99.90;;;;;;5069934;28;20112;-48
2022/04/26 10:57:21;;;;;;;7.00;3.58;;;13.80;99.90;;;;;;5062218;28;20056;-50
2022/04/26 10:59:56;;;;;;;5.28;3.08;;;14.10;99.90;;;;;;5062456;28;20105;-52
2022/04/26 11:02:23;;;;;;;7.40;3.95;;;13.80;99.90;;;;;;5061987;28;20055;-50
2022/04/26 11:04:57;;;;;;;6.05;3.67;;;13.60;99.70;;;;;;5070550;28;20040;-50
2022/04/26 11:07:26;;;;;;;6.95;3.30;;;13.30;99.90;;;;;;5074383;28;20052;-51
2022/04/26 11:09:54;;;;;;;6.38;3.55;;;13.70;99.90;;;;;;5071295;28;20048;-50
2022/04/26 11:12:30;;;;;;;6.20;3.28;;;14.00;99.90;;;;;;5060359;28;20056;-51
2022/04/26 11:15:21;;;;;;;8.07;4.10;;;14.20;99.00;;;;;;5062456;28;20048;-42
2022/04/26 11:17:51;;;;;;;5.57;3.47;;;14.50;99.60;;;;;;5070903;28;20067;-50
2022/04/26 11:20:20;;;;;;;10.48;4.18;;;14.20;99.10;;;;;;5060638;28;20048;-49
2022/04/26 11:22:52;;;;;;;6.28;4.18;;;13.80;98.90;;;;;;5071891;28;20511;-50
2022/04/26 11:28:11;;;;;;;5.60;3.85;;;13.90;99.60;;;;;;5064973;28;20657;-49
2022/04/26 11:30:47;;;;;;;7.88;4.40;;;14.10;99.50;;;;;;5062374;28;20044;-51
2022/04/26 11:33:24;;;;;;;13.02;4.97;;;14.20;99.10;;;;;;5061090;28;20053;-53
2022/04/26 11:36:00;;;;;;;5.57;3.58;;;13.70;98.60;;;;;;5063075;28;20167;-54
2022/04/26 11:38:27;;;;;;;8.43;4.35;;;13.30;99.20;;;;;;5060546;28;20052;-49
2022/04/26 11:40:55;;;;;;;7.30;3.85;;;13.30;99.60;;;;;;5062162;28;20139;-49
2022/04/26 11:43:28;;;;;;;9.00;3.60;;;13.50;99.90;;;;;;5062850;28;20415;-49
2022/04/26 11:45:55;;;;;;;6.78;3.47;;;13.90;99.00;;;;;;5063572;28;20055;-50
2022/04/26 11:48:24;;;;;;;8.18;3.33;;;14.00;99.00;;;;;;5061890;28;20073;-46
2022/04/26 11:50:51;;;;;;;5.10;3.38;;;13.80;99.00;;;;;;5075132;28;20548;-46
2022/04/26 11:53:18;;;;;;;4.22;3.30;;;14.00;98.80;;;;;;5073898;28;20376;-52
2022/04/26 11:55:46;;;;;;;4.82;3.20;;;14.20;98.20;;;;;;5081837;28;20139;-48
2022/04/26 11:58:22;;;;;;;9.32;4.03;;;14.50;99.90;;;;;;5081426;28;20044;-51
2022/04/26 12:01:00;;;;;;;7.18;3.70;;;14.40;99.30;;;;;;5084690;28;20722;-48
2022/04/26 12:03:33;;;;;;;4.70;3.55;;;14.10;98.90;;;;;;5084403;28;20052;-50
2022/04/26 12:06:06;;;;;;;4.47;3.28;;;13.70;98.50;;;;;;5083313;28;20456;-50
2022/04/26 12:08:36;;;;;;;;;;;13.70;98.10;;;;;;5076244;28;20045;-53
2022/04/26 12:11:27;;;;;;;7.10;3.75;;;13.90;98.90;;;;;;5066423;28;19951;-52
2022/04/26 12:14:16;;;;;;;4.93;3.13;;;13.90;98.40;;;;;;5061097;28;20659;-51
2022/04/26 12:16:56;;;;;;;4.90;3.50;;;13.60;98.00;;;;;;5060013;28;20583;-50
2022/04/26 12:19:36;;;;;;;6.63;3.47;;;13.50;97.50;;;;;;5066654;28;20045;-50
2022/04/26 12:22:03;;;;;;;7.53;4.03;;;13.60;97.90;;;;;;5076219;28;20060;-50
2022/04/26 12:24:31;;;;;;;5.10;3.17;;;13.90;99.60;;;;;;5080469;28;20052;-49
2022/04/26 12:27:02;;;;;;;6.93;3.78;;;13.80;95.80;;;;;;5082201;28;20409;-52
2022/04/26 12:29:30;;;;;;;6.28;3.30;;;13.90;96.60;;;;;;5080829;28;20112;-51
2022/04/26 12:32:04;;;;;;;6.22;3.70;;;13.90;97.30;;;;;;5081060;28;20052;-49
2022/04/26 12:34:32;;;;;;;5.50;3.63;;;14.30;98.60;;;;;;5082226;28;20087;-48
2022/04/26 12:37:09;;;;;;;6.00;3.45;;;14.30;97.20;;;;;;5082325;28;20452;-50
2022/04/26 12:39:41;;;;;;;7.18;3.53;;;14.00;96.40;;;;;;5081485;28;20636;-49
2022/04/26 12:42:09;;;;;;;6.70;3.70;;;14.00;97.50;;;;;;5081587;28;20048;-49
2022/04/26 12:44:37;;;;;;;7.53;3.60;;;14.00;97.20;;;;;;5081779;28;20301;-51
2022/04/26 12:52:59;;;;;;;7.18;3.15;;;14.20;94.70;;;;;;5071705;28;20442;-49
2022/04/26 12:55:35;;;;;;;5.65;2.90;;;14.50;95.50;;;;;;5079903;28;20052;-47
2022/04/26 12:58:06;;;;;;;7.50;4.07;;;14.80;94.90;;;;;;5081094;28;20044;-53
2022/04/26 13:00:33;;;;;;;7.00;3.22;;;15.00;96.70;;;;;;5081132;28;20087;-45
2022/04/26 13:03:05;;;;;;;6.47;3.72;;;15.00;95.30;;;;;;5080469;28;20428;-47
2022/04/26 13:05:40;;;;;;;6.25;3.17;;;14.90;95.00;;;;;;5079901;28;20043;-51
2022/04/26 13:08:07;;;;;;;5.75;3.30;;;14.90;96.20;;;;;;5079006;28;20098;-47
2022/04/26 13:10:33;;;;;;;5.70;3.42;;;14.80;96.10;;;;;;5070010;28;20102;-50
2022/04/26 13:12:59;;;;;;;5.65;2.97;;;14.80;95.20;;;;;;5061940;28;20055;-44
2022/04/26 13:15:27;;;;;;;8.85;4.82;;;14.80;96.30;;;;;;5061830;28;20052;-43
2022/04/26 13:17:53;;;;;;;6.00;4.30;;;14.80;95.30;;;;;;5060900;28;20063;-48
2022/04/26 13:20:19;;;;;;;5.55;3.55;;;14.60;95.00;;;;;;5077962;28;20189;-49
2022/04/26 13:22:45;;;;;;;7.53;3.70;;;14.40;95.20;;;;;;5083739;28;20056;-49
2022/04/26 13:25:11;;;;;;;6.18;3.85;;;14.30;95.50;;;;;;5081404;28;20048;-52
2022/04/26 13:27:38;;;;;;;8.15;3.53;;;14.20;96.40;;;;;;5079746;28;20779;-50
2022/04/26 13:30:06;;;;;;;8.23;3.70;;;14.20;97.10;;;;;;5079808;28;20498;-47
2022/04/26 13:32:37;;;;;;;9.90;3.72;;;14.30;97.20;;;;;;5080497;28;20091;-49
2022/04/26 13:35:05;;;;;;;6.78;3.38;;;14.20;97.00;;;;;;5078865;28;20485;-53
2022/04/26 13:37:32;;;;;;;8.68;4.28;;;14.20;97.50;;;;;;5079953;28;20131;-53
2022/04/26 13:40:00;;;;;;;12.05;5.15;;;14.10;96.80;;;;;;5081324;28;20199;-53
2022/04/26 13:42:27;;;;;;;6.38;3.70;;;14.00;97.60;;;;;;5081211;28;20062;-50
2022/04/26 13:44:58;;;;;;;5.80;3.65;;;13.90;98.30;;;;;;5080592;28;20043;-47
2022/04/26 13:47:26;;;;;;;6.60;4.25;;;13.50;98.50;;;;;;5080014;28;20056;-45
2022/04/26 13:49:52;;;;;;;7.28;3.75;;;13.20;99.10;;;;;;5081127;28;20054;-52
2022/04/26 13:52:20;;;;;;;7.78;3.58;;;13.30;99.10;;;;;;5077763;28;20517;-50
2022/04/26 13:54:46;;;;;;;12.68;4.03;;;13.30;98.30;;;;;;5080213;28;20516;-52
2022/04/26 13:57:12;;;;;;;7.18;4.03;;;13.40;98.90;;;;;;5079722;28;20048;-50
2022/04/26 13:59:38;;;;;;;8.00;4.20;;;13.50;98.60;;;;;;5080494;28;20048;-51
2022/04/26 14:02:05;;;;;;;5.70;4.25;;;13.60;99.00;;;;;;5080251;28;20167;-53
2022/04/26 14:04:32;;;;;;;5.93;3.85;;;13.70;98.10;;;;;;5078774;28;20052;-53
2022/04/26 14:06:58;;;;;;;5.30;3.97;;;13.70;98.20;;;;;;5079485;28;20456;-52
2022/04/26 14:09:24;;;;;;;6.80;3.40;;;13.80;97.60;;;;;;5069703;28;20058;-51
2022/04/26 14:11:51;;;;;;;7.90;3.45;;;13.90;97.90;;;;;;5060311;28;20501;-52
2022/04/26 14:22:32;;;;;;;8.35;3.78;;;14.30;97.70;;;;;;5071425;28;20063;-53
2022/04/26 14:25:03;;;;;;;8.23;3.65;;;14.60;97.90;;;;;;5079298;28;20686;-55
2022/04/26 14:27:36;;;;;;;13.43;3.60;;;14.80;97.30;;;;;;5080258;28;20230;-49
2022/04/26 14:30:06;;;;;;;11.13;5.40;;;14.80;96.80;;;;;;5080269;28;20055;-48
2022/04/26 14:32:33;;;;;;;8.65;3.58;;;14.80;97.00;;;;;;5080307;28;20138;-54
2022/04/26 14:34:58;;;;;;;6.45;3.58;;;15.00;97.40;;;;;;5081295;28;20410;-51
2022/04/26 14:37:24;;;;;;;11.38;3.72;;;14.90;96.80;;;;;;5080753;28;20070;-51
2022/04/26 14:39:51;;;;;;;9.60;3.42;;;14.90;96.90;;;;;;5081740;28;20134;-45
2022/04/26 14:42:17;;;;;;;14.35;5.03;;;14.70;96.80;;;;;;5082512;28;20046;-53
2022/04/26 14:44:43;;;;;;;4.80;3.47;;;14.40;97.40;;;;;;5080920;28;20047;-49
2022/04/26 14:47:09;;;;;;;5.38;3.60;;;14.10;96.60;;;;;;5080883;28;20044;-49
2022/04/26 14:49:36;;;;;;;6.97;4.20;;;14.00;96.90;;;;;;5079773;28;20055;-52
2022/04/26 14:52:02;;;;;;;7.68;3.53;;;13.90;96.70;;;;;;5075684;28;20579;-49
2022/04/26 14:54:28;;;;;;;5.05;3.22;;;13.90;96.70;;;;;;5079810;28;20036;-49
2022/04/26 14:56:54;;;;;;;8.07;4.43;;;13.90;96.30;;;;;;5078946;28;20127;-50
2022/04/26 14:59:22;;;;;;;6.15;3.30;;;13.90;96.50;;;;;;5069958;28;20054;-52
2022/04/26 15:01:49;;;;;;;6.93;3.83;;;13.80;96.30;;;;;;5058126;28;20099;-48
2022/04/26 15:04:22;;;;;;;8.60;3.88;;;13.90;97.50;;;;;;5060737;28;20497;-50
2022/04/26 15:06:49;;;;;;;6.80;3.92;;;13.90;97.40;;;;;;5063143;28;20047;-53
2022/04/26 15:17:30;;;;;;;5.72;3.28;;;14.00;96.60;;;;;;5076915;28;20056;-53
2022/04/26 15:19:56;;;;;;;4.60;3.28;;;14.20;96.50;;;;;;5075635;28;20067;-51
2022/04/26 15:22:26;;;;;;;6.30;3.90;;;14.10;96.20;;;;;;5074299;28;20402;-52
2022/04/26 15:24:55;;;;;;;6.38;3.42;;;14.10;95.70;;;;;;5059361;28;20078;-53
2022/04/26 15:27:22;;;;;;;15.20;4.28;;;14.20;96.50;;;;;;5058740;28;20059;-49
2022/04/26 15:29:48;;;;;;;11.95;3.90;;;14.30;95.70;;;;;;5061348;28;20044;-54
2022/04/26 15:32:14;;;;;;;8.07;3.75;;;14.10;95.80;;;;;;5062583;28;20048;-48
2022/04/26 15:34:40;;;;;;;6.38;3.55;;;13.90;96.20;;;;;;5063780;28;20135;-48
2022/04/26 15:37:07;;;;;;;6.30;3.40;;;13.70;95.10;;;;;;5062837;28;20048;-53
2022/04/26 15:39:33;;;;;;;6.78;3.60;;;13.60;95.70;;;;;;5062942;28;20131;-52
2022/04/26 15:42:00;;;;;;;6.75;3.72;;;13.50;96.10;;;;;;5073543;28;20047;-49
2022/04/26 15:44:27;;;;;;;6.13;3.50;;;13.60;96.90;;;;;;5083545;28;20055;-53
2022/04/26 15:46:56;;;;;;;6.68;3.55;;;13.70;97.10;;;;;;5081973;28;20401;-51
2022/04/26 15:49:23;;;;;;;6.60;3.40;;;13.80;97.00;;;;;;5082861;28;20469;-51
2022/04/26 15:51:48;;;;;;;5.07;3.53;;;13.80;96.60;;;;;;5076439;28;20048;-53
2022/04/26 15:54:15;;;;;;;5.13;3.85;;;13.80;96.70;;;;;;5083369;28;20047;-50
2022/04/26 15:56:45;;;;;;;8.95;3.65;;;13.70;97.10;;;;;;5085279;28;20389;-50
2022/04/26 15:59:11;;;;;;;6.22;3.60;;;13.60;97.20;;;;;;5083917;28;20052;-49
2022/04/26 16:01:41;;;;;;;7.18;3.50;;;13.40;97.10;;;;;;5080918;28;20062;-54
2022/04/26 16:04:10;;;;;;;4.93;3.05;;;13.40;96.70;;;;;;5082299;28;20490;-50
2022/04/26 16:06:41;;;;;;;10.32;4.00;;;13.30;96.40;;;;;;5082383;28;20052;-54
2022/04/26 16:22:50;;;;;;;6.07;3.33;;;12.70;97.20;;;;;;5062448;28;20063;-52
2022/04/26 16:25:16;;;;;;;6.63;3.30;;;12.60;95.90;;;;;;5066666;28;20049;-52
2022/04/26 16:27:42;;;;;;;7.55;3.20;;;12.50;95.80;;;;;;5061087;28;20102;-47
2022/04/26 16:30:10;;;;;;;5.65;3.00;;;12.40;96.10;;;;;;5061433;28;20407;-52
2022/04/26 16:32:36;;;;;;;8.40;3.63;;;12.40;96.30;;;;;;5062459;28;20052;-50
2022/04/26 16:35:01;;;;;;;6.95;3.78;;;12.20;95.60;;;;;;5063677;28;20506;-52
2022/04/26 16:37:27;;;;;;;6.68;3.60;;;12.30;96.60;;;;;;5061404;28;20045;-49
2022/04/26 16:39:53;;;;;;;6.22;4.30;;;12.00;97.20;;;;;;5061267;28;20049;-52
2022/04/26 16:42:20;;;;;;;7.43;3.78;;;11.90;97.60;;;;;;5061262;28;20059;-46
2022/04/26 16:44:46;;;;;;;7.25;3.40;;;11.80;97.60;;;;;;5061586;28;20095;-48
2022/04/26 16:47:12;;;;;;;3.90;3.30;;;11.80;97.60;;;;;;5069495;28;20047;-47
2022/04/26 16:49:39;;;;;;;6.25;3.55;;;11.80;98.00;;;;;;5063632;28;20052;-49
2022/04/26 16:52:05;;;;;;;7.43;3.42;;;11.80;98.40;;;;;;5071987;28;20049;-48
2022/04/26 16:54:31;;;;;;;4.90;2.90;;;11.90;98.30;;;;;;5081332;28;20507;-49
2022/04/26 16:56:57;;;;;;;7.53;3.53;;;11.80;98.40;;;;;;5081154;28;20062;-52
2022/04/26 16:59:24;;;;;;;8.07;3.55;;;11.80;99.00;;;;;;5080713;28;20048;-50
2022/04/26 17:01:51;;;;;;;9.25;3.80;;;11.80;98.80;;;;;;5080265;28;20056;-50
2022/04/26 17:04:17;;;;;;;7.80;3.42;;;11.60;98.90;;;;;;5078749;28;20392;-47
2022/04/26 17:06:43;;;;;;;6.85;2.90;;;11.40;99.10;;;;;;5060192;28;20091;-50
2022/04/26 17:09:10;;;;;;;6.28;3.47;;;11.20;99.30;;;;;;5077375;28;20478;-52
2022/04/26 17:11:42;;;;;;;4.72;2.80;;;11.20;99.60;;;;;;5062407;28;20118;-48
2022/04/26 17:14:15;;;;;;;6.80;2.75;;;11.10;99.90;;;;;;5063620;28;20156;-54
2022/04/26 17:16:45;;;;;;;4.63;3.03;;;11.10;99.90;;;;;;5073198;28;20099;-52
2022/04/26 17:19:14;;;;;;;5.43;3.08;;;11.10;99.90;;;;;;5066031;28;20105;-52
2022/04/26 17:21:41;;;;;;;8.23;3.38;;;11.00;99.90;;;;;;5060252;28;20044;-51
2022/04/26 17:25:13;;;;;;;7.57;3.20;;;11.00;99.90;;;;;;5059806;28;20052;-52
2022/04/26 17:26:54;;;;;;;6.60;2.95;;;11.00;99.90;;;;;;5074914;28;20411;-50